createdAt,value
2022-09-28T00:00:39.744Z,99099.63
2022-09-28T00:02:43.147Z,99101.34
2022-09-28T00:04:46.574Z,99111.53
2022-09-28T00:06:50.033Z,99104.59
2022-09-28T00:08:53.681Z,99102.19
2022-09-28T00:10:59.231Z,99109.16
2022-09-28T00:13:02.725Z,99107.47
2022-09-28T00:15:06.573Z,99107.50
2022-09-28T00:17:09.963Z,99103.94
2022-09-28T00:19:13.735Z,99101.38
2022-09-28T00:21:19.013Z,99105.75
2022-09-28T00:23:22.315Z,99098.78
2022-09-28T00:25:25.569Z,99105.78
2022-09-28T00:27:30.321Z,99098.84
2022-09-28T00:29:35.281Z,99099.72
2022-09-28T00:31:38.766Z,99100.59
2022-09-28T00:33:42.096Z,99094.56
2022-09-28T00:35:46.161Z,99100.66
2022-09-28T00:37:50.868Z,99093.69
2022-09-28T00:39:54.225Z,99095.34
2022-09-28T00:41:57.537Z,99098.84
2022-09-28T00:44:43.611Z,99091.03
2022-09-28T00:46:48.249Z,99088.44
2022-09-28T00:48:56.057Z,99085.88
2022-09-28T00:51:02.460Z,99084.94
2022-09-28T00:53:12.633Z,99091.91
2022-09-28T00:55:19.178Z,99090.16
2022-09-28T00:57:23.989Z,99084.94
2022-09-28T00:59:27.499Z,99087.59
2022-09-28T01:01:31.597Z,99076.28
2022-09-28T01:03:36.881Z,99067.66
2022-09-28T01:05:41.446Z,99068.53
2022-09-28T01:07:47.409Z,99073.72
2022-09-28T01:09:51.462Z,99067.63
2022-09-28T01:11:55.144Z,99060.63
2022-09-28T01:13:59.409Z,99061.53
2022-09-28T01:16:12.812Z,99055.47
2022-09-28T01:18:23.285Z,99061.56
2022-09-28T01:20:35.382Z,99062.34
2022-09-28T01:23:09.304Z,99076.22
2022-09-28T01:25:17.701Z,99075.38
2022-09-28T01:27:29.159Z,99079.72
2022-09-28T01:29:44.822Z,99077.16
2022-09-28T01:31:53.975Z,99075.47
2022-09-28T01:34:02.082Z,99073.75
2022-09-28T01:36:11.158Z,99054.63
2022-09-28T01:38:20.424Z,99070.31
2022-09-28T01:40:27.420Z,99072.84
2022-09-28T01:42:35.458Z,99058.91
2022-09-28T01:44:46.288Z,99068.50
2022-09-28T01:46:51.573Z,99065.97
2022-09-28T01:48:58.247Z,99069.47
2022-09-28T01:51:07.350Z,99068.59
2022-09-28T01:53:16.778Z,99067.66
2022-09-28T01:55:27.447Z,99066.78
2022-09-28T01:57:38.674Z,99060.75
2022-09-28T01:59:47.497Z,99059.00
2022-09-28T02:01:54.810Z,99054.53
2022-09-28T02:04:03.659Z,99060.69
2022-09-28T02:06:13.830Z,99015.50
2022-09-28T02:08:25.470Z,99062.44
2022-09-28T02:10:36.422Z,99049.41
2022-09-28T02:12:45.566Z,99057.28
2022-09-28T02:14:53.704Z,99057.28
2022-09-28T02:16:58.661Z,99059.00
2022-09-28T02:19:06.456Z,99062.50
2022-09-28T02:21:16.869Z,99059.88
2022-09-28T02:23:22.867Z,99064.25
2022-09-28T02:25:37.946Z,99071.22
2022-09-28T02:27:49.818Z,99062.53
2022-09-28T02:29:53.396Z,99068.63
2022-09-28T02:31:56.833Z,99059.94
2022-09-28T02:34:00.307Z,99060.78
2022-09-28T02:36:04.554Z,99052.06
2022-09-28T02:38:14.089Z,99071.19
2022-09-28T02:40:21.317Z,99066.88
2022-09-28T02:42:30.370Z,99070.31
2022-09-28T02:44:49.613Z,99066.81
2022-09-28T02:47:01.110Z,99057.31
2022-09-28T02:49:23.217Z,99071.16
2022-09-28T02:51:33.907Z,99069.47
2022-09-28T02:53:55.038Z,99068.53
2022-09-28T02:56:19.271Z,99070.34
2022-09-28T02:58:31.961Z,99063.41
2022-09-28T03:00:45.198Z,99041.50
2022-09-28T03:03:00.792Z,99056.38
2022-09-28T03:05:15.615Z,99069.34
2022-09-28T03:07:26.690Z,99045.88
2022-09-28T03:09:36.021Z,99067.63
2022-09-28T03:11:44.433Z,99065.91
2022-09-28T03:13:48.738Z,99063.31
2022-09-28T03:16:06.604Z,99062.44
2022-09-28T03:18:10.164Z,99066.78
2022-09-28T03:20:13.936Z,99063.31
2022-09-28T03:22:17.394Z,99045.84
2022-09-28T03:24:20.755Z,99064.16
2022-09-28T03:26:24.534Z,99066.88
2022-09-28T03:28:28.185Z,99062.53
2022-09-28T03:30:31.852Z,99067.78
2022-09-28T03:32:37.039Z,99068.63
2022-09-28T03:34:40.447Z,99075.56
2022-09-28T03:36:44.183Z,99080.78
2022-09-28T03:38:47.542Z,99071.22
2022-09-28T03:40:55.030Z,99067.75
2022-09-28T03:43:01.363Z,99071.22
2022-09-28T03:45:05.660Z,99067.78
2022-09-28T03:47:09.524Z,99070.34
2022-09-28T03:49:14.852Z,99070.25
2022-09-28T03:51:18.433Z,99066.00
2022-09-28T03:53:22.038Z,99070.31
2022-09-28T03:55:25.551Z,99074.59
2022-09-28T03:57:28.969Z,99068.56
2022-09-28T03:59:32.364Z,99072.97
2022-09-28T04:01:35.961Z,99014.63
2022-09-28T04:03:39.624Z,99072.06
2022-09-28T04:05:50.962Z,99070.38
2022-09-28T04:07:56.081Z,99077.31
2022-09-28T04:09:59.638Z,99074.63
2022-09-28T04:12:04.589Z,99069.44
2022-09-28T04:14:10.150Z,99045.03
2022-09-28T04:16:13.462Z,99067.63
2022-09-28T04:18:20.358Z,99069.41
2022-09-28T04:20:45.362Z,99071.16
2022-09-28T04:22:51.194Z,99065.94
2022-09-28T04:24:54.871Z,99062.47
2022-09-28T04:27:18.353Z,99071.19
2022-09-28T04:29:20.975Z,99071.19
2022-09-28T04:31:29.904Z,99079.88
2022-09-28T04:33:33.511Z,99069.41
2022-09-28T04:35:37.018Z,99072.88
2022-09-28T04:37:40.380Z,99074.56
2022-09-28T04:39:48.357Z,99069.44
2022-09-28T04:41:54.941Z,99076.34
2022-09-28T04:43:58.424Z,99075.50
2022-09-28T04:46:03.453Z,99076.34
2022-09-28T04:48:14.895Z,99072.88
2022-09-28T04:50:57.024Z,99078.97
2022-09-28T04:53:01.744Z,99058.94
2022-09-28T04:55:07.528Z,99078.06
2022-09-28T04:57:11.418Z,99074.59
2022-09-28T04:59:15.405Z,99077.25
2022-09-28T05:01:23.361Z,99085.06
2022-09-28T05:03:36.166Z,99084.16
2022-09-28T05:06:00.360Z,99077.13
2022-09-28T05:08:17.505Z,99077.97
2022-09-28T05:10:23.454Z,99077.13
2022-09-28T05:12:26.799Z,99071.09
2022-09-28T05:14:30.215Z,99084.13
2022-09-28T05:16:35.123Z,99078.06
2022-09-28T05:19:14.040Z,99084.91
2022-09-28T05:21:20.032Z,99088.38
2022-09-28T05:23:23.339Z,99091.88
2022-09-28T05:25:32.743Z,99082.34
2022-09-28T05:27:46.344Z,99085.78
2022-09-28T05:30:14.450Z,99091.91
2022-09-28T05:32:41.171Z,99089.31
2022-09-28T05:35:08.371Z,99086.59
2022-09-28T05:37:18.228Z,99084.91
2022-09-28T05:39:23.147Z,99084.16
2022-09-28T05:41:27.846Z,99083.28
2022-09-28T05:43:31.565Z,99087.56
2022-09-28T05:45:34.984Z,99082.41
2022-09-28T05:47:41.343Z,99093.66
2022-09-28T05:49:45.192Z,99077.19
2022-09-28T05:51:49.169Z,99087.63
2022-09-28T05:53:55.369Z,99088.41
2022-09-28T05:55:59.886Z,99095.44
2022-09-28T05:58:06.992Z,99092.88
2022-09-28T06:00:11.725Z,99097.19
2022-09-28T06:02:22.304Z,99087.63
2022-09-28T06:04:25.784Z,99105.88
2022-09-28T06:06:29.122Z,99105.03
2022-09-28T06:08:34.051Z,99100.06
2022-09-28T06:10:51.024Z,99099.44
2022-09-28T06:12:54.685Z,99098.50
2022-09-28T06:15:01.186Z,99103.66
2022-09-28T06:17:04.718Z,99101.84
2022-09-28T06:19:09.098Z,99107.88
2022-09-28T06:21:39.520Z,99110.38
2022-09-28T06:23:48.848Z,99112.16
2022-09-28T06:25:54.588Z,99120.72
2022-09-28T06:27:59.530Z,99113.78
2022-09-28T06:30:04.946Z,99098.06
2022-09-28T06:32:08.452Z,99127.63
2022-09-28T06:34:14.305Z,99127.59
2022-09-28T06:36:18.555Z,99129.28
2022-09-28T06:38:21.924Z,99121.47
2022-09-28T06:40:27.712Z,99140.56
2022-09-28T06:42:31.413Z,99137.00
2022-09-28T06:45:01.268Z,99142.16
2022-09-28T06:47:22.113Z,99137.03
2022-09-28T06:49:35.975Z,99142.25
2022-09-28T06:52:17.306Z,99138.72
2022-09-28T06:54:41.610Z,99134.44
2022-09-28T06:56:58.273Z,99144.03
2022-09-28T06:59:01.651Z,99147.38
2022-09-28T07:01:05.769Z,99151.75
2022-09-28T07:03:23.906Z,99156.97
2022-09-28T07:05:43.574Z,99148.22
2022-09-28T07:08:14.088Z,99156.75
2022-09-28T07:10:36.334Z,99162.84
2022-09-28T07:13:02.615Z,99160.19
2022-09-28T07:15:26.976Z,99164.59
2022-09-28T07:17:31.692Z,99156.75
2022-09-28T07:19:38.767Z,99168.16
2022-09-28T07:21:42.159Z,99165.66
2022-09-28T07:23:53.194Z,99167.31
2022-09-28T07:26:07.157Z,99153.31
2022-09-28T07:28:34.083Z,99166.41
2022-09-28T07:31:06.896Z,99163.91
2022-09-28T07:33:42.175Z,99171.78
2022-09-28T07:35:55.707Z,99178.75
2022-09-28T07:38:07.808Z,99183.94
2022-09-28T07:40:28.784Z,99124.78
2022-09-28T07:42:32.679Z,99190.06
2022-09-28T07:44:36.607Z,99192.72
2022-09-28T07:46:41.004Z,99191.94
2022-09-28T07:48:52.056Z,99191.06
2022-09-28T07:51:11.483Z,99201.50
2022-09-28T07:53:38.156Z,99191.91
2022-09-28T07:56:05.660Z,99205.00
2022-09-28T07:58:14.015Z,99209.41
2022-09-28T08:00:24.668Z,99205.06
2022-09-28T08:02:28.226Z,99208.53
2022-09-28T08:04:31.668Z,99210.25
2022-09-28T08:06:36.429Z,99207.69
2022-09-28T08:08:44.577Z,99205.13
2022-09-28T08:10:52.445Z,99210.31
2022-09-28T08:13:15.155Z,99212.94
2022-09-28T08:15:38.283Z,99212.06
2022-09-28T08:18:04.938Z,99218.22
2022-09-28T08:20:26.838Z,99214.72
2022-09-28T08:22:32.774Z,99221.59
2022-09-28T08:24:37.141Z,99212.06
2022-09-28T08:26:40.656Z,99217.41
2022-09-28T08:28:45.166Z,99222.69
2022-09-28T08:31:14.511Z,99220.06
2022-09-28T08:33:38.410Z,99217.44
2022-09-28T08:36:02.273Z,99226.16
2022-09-28T08:38:26.666Z,99228.81
2022-09-28T08:40:59.863Z,99229.69
2022-09-28T08:43:27.012Z,99234.88
2022-09-28T08:45:52.206Z,99239.19
2022-09-28T08:48:41.075Z,99243.53
2022-09-28T08:51:20.043Z,99234.03
2022-09-28T08:53:52.982Z,99246.19
2022-09-28T08:56:04.542Z,99241.84
2022-09-28T08:58:13.440Z,99245.41
2022-09-28T09:00:22.202Z,99245.47
2022-09-28T09:02:29.908Z,99260.22
2022-09-28T09:04:46.507Z,99253.28
2022-09-28T09:07:30.492Z,99249.81
2022-09-28T09:09:58.301Z,99259.41
2022-09-28T09:12:10.010Z,99255.06
2022-09-28T09:14:33.578Z,99255.94
2022-09-28T09:16:47.242Z,99255.06
2022-09-28T09:19:18.068Z,99263.75
2022-09-28T09:21:42.587Z,99254.97
2022-09-28T09:23:56.131Z,99260.19
2022-09-28T09:26:07.117Z,99264.56
2022-09-28T09:28:39.367Z,99263.63
2022-09-28T09:30:50.488Z,99266.22
2022-09-28T09:33:08.366Z,99261.00
2022-09-28T09:35:42.758Z,99261.91
2022-09-28T09:38:30.255Z,99266.25
2022-09-28T09:41:04.336Z,99271.47
2022-09-28T09:44:00.379Z,99264.50
2022-09-28T09:46:31.222Z,99266.25
2022-09-28T09:49:05.850Z,99277.63
2022-09-28T09:51:17.705Z,99275.06
2022-09-28T09:53:27.739Z,99273.28
2022-09-28T09:55:35.181Z,99278.53
2022-09-28T09:58:05.894Z,99280.22
2022-09-28T10:00:19.992Z,99272.44
2022-09-28T10:02:40.889Z,99272.41
2022-09-28T10:05:00.637Z,99276.81
2022-09-28T10:07:19.870Z,99285.56
2022-09-28T10:09:27.277Z,99277.72
2022-09-28T10:11:50.261Z,99277.75
2022-09-28T10:13:54.013Z,99278.59
2022-09-28T10:16:25.599Z,99284.69
2022-09-28T10:18:35.784Z,99276.91
2022-09-28T10:20:57.817Z,99276.06
2022-09-28T10:23:23.515Z,99276.94
2022-09-28T10:25:28.193Z,99273.47
2022-09-28T10:27:35.642Z,99279.59
2022-09-28T10:29:46.819Z,99274.31
2022-09-28T10:31:53.632Z,99285.63
2022-09-28T10:34:02.484Z,99281.34
2022-09-28T10:36:08.384Z,99263.94
2022-09-28T10:38:18.497Z,99283.97
2022-09-28T10:40:40.083Z,99280.47
2022-09-28T10:42:43.811Z,99286.56
2022-09-28T10:44:54.312Z,99283.97
2022-09-28T10:47:18.863Z,99264.75
2022-09-28T10:49:25.844Z,99281.34
2022-09-28T10:51:43.632Z,99283.06
2022-09-28T10:54:00.883Z,99263.94
2022-09-28T10:56:28.041Z,99282.19
2022-09-28T10:58:42.142Z,99285.69
2022-09-28T11:00:50.507Z,99284.78
2022-09-28T11:02:57.753Z,99285.69
2022-09-28T11:05:03.537Z,99286.56
2022-09-28T11:07:19.049Z,99293.50
2022-09-28T11:09:30.838Z,99283.94
2022-09-28T11:11:41.908Z,99278.72
2022-09-28T11:13:48.881Z,99265.69
2022-09-28T11:15:57.966Z,99277.84
2022-09-28T11:18:28.187Z,99289.16
2022-09-28T11:20:35.738Z,99286.53
2022-09-28T11:22:44.308Z,99288.31
2022-09-28T11:24:48.980Z,99286.56
2022-09-28T11:26:56.388Z,99285.66
2022-09-28T11:29:03.373Z,99281.31
2022-09-28T11:31:18.168Z,99286.53
2022-09-28T11:33:34.728Z,99287.38
2022-09-28T11:36:06.733Z,99287.38
2022-09-28T11:38:33.999Z,99290.00
2022-09-28T11:41:26.119Z,99291.72
2022-09-28T11:43:55.824Z,99288.28
2022-09-28T11:46:08.475Z,99290.84
2022-09-28T11:48:16.564Z,99289.97
2022-09-28T11:50:30.604Z,99287.34
2022-09-28T11:52:39.577Z,99290.81
2022-09-28T11:54:49.111Z,99289.97
2022-09-28T11:56:53.781Z,99287.34
2022-09-28T11:59:02.556Z,99285.63
2022-09-28T12:01:25.645Z,99283.03
2022-09-28T12:03:53.502Z,99273.44
2022-09-28T12:06:02.014Z,99291.66
2022-09-28T12:08:13.301Z,99293.38
2022-09-28T12:10:48.081Z,99293.31
2022-09-28T12:13:01.080Z,99295.03
2022-09-28T12:15:14.178Z,99288.94
2022-09-28T12:17:23.760Z,99286.34
2022-09-28T12:19:33.398Z,99293.34
2022-09-28T12:21:45.674Z,99283.78
2022-09-28T12:23:50.419Z,99292.50
2022-09-28T12:25:59.460Z,99292.47
2022-09-28T12:28:07.460Z,99294.19
2022-09-28T12:30:16.128Z,99292.47
2022-09-28T12:32:28.531Z,99293.34
2022-09-28T12:34:31.973Z,99297.66
2022-09-28T12:36:50.498Z,99287.22
2022-09-28T12:39:19.036Z,99285.44
2022-09-28T12:41:41.960Z,99272.34
2022-09-28T12:44:03.929Z,99281.03
2022-09-28T12:46:49.507Z,99277.47
2022-09-28T12:50:07.274Z,99274.81
2022-09-28T12:51:48.430Z,99280.06
2022-09-28T12:54:07.492Z,99270.47
2022-09-28T12:56:21.533Z,99221.81
2022-09-28T12:58:51.060Z,99282.59
2022-09-28T13:01:04.042Z,99277.41
2022-09-28T13:03:37.401Z,99283.53
2022-09-28T13:06:07.943Z,99284.47
2022-09-28T13:08:22.506Z,99277.34
2022-09-28T13:10:32.611Z,99278.13
2022-09-28T13:12:50.024Z,99276.25
2022-09-28T13:15:29.673Z,99287.78
2022-09-28T13:17:46.257Z,99279.06
2022-09-28T13:19:58.637Z,99279.94
2022-09-28T13:22:14.381Z,99275.59
2022-09-28T13:24:33.885Z,99281.72
2022-09-28T13:26:41.511Z,99280.09
2022-09-28T13:28:47.188Z,99281.91
2022-09-28T13:30:52.470Z,99275.81
2022-09-28T13:32:58.506Z,99283.69
2022-09-28T13:35:02.509Z,99282.84
2022-09-28T13:37:11.930Z,99284.63
2022-09-28T13:39:56.393Z,99284.59
2022-09-28T13:42:00.177Z,99281.94
2022-09-28T13:44:29.175Z,99277.06
2022-09-28T13:46:43.163Z,99278.75
2022-09-28T13:48:56.064Z,99282.53
2022-09-28T13:51:15.979Z,99277.25
2022-09-28T13:53:30.968Z,99279.50
2022-09-28T13:55:41.510Z,99279.84
2022-09-28T13:57:48.618Z,99286.00
2022-09-28T14:00:03.970Z,99278.22
2022-09-28T14:02:29.807Z,99282.84
2022-09-28T14:04:55.636Z,99228.13
2022-09-28T14:07:11.756Z,99274.00
2022-09-28T14:09:27.860Z,99282.94
2022-09-28T14:11:56.739Z,99274.50
2022-09-28T14:14:05.990Z,99275.28
2022-09-28T14:16:22.957Z,99278.06
2022-09-28T14:18:31.287Z,99276.38
2022-09-28T14:20:37.875Z,99270.03
2022-09-28T14:23:00.887Z,99277.66
2022-09-28T14:25:11.740Z,99276.41
2022-09-28T14:27:41.695Z,99273.53
2022-09-28T14:29:45.605Z,99274.00
2022-09-28T14:31:48.942Z,99269.69
2022-09-28T14:33:58.579Z,99289.03
2022-09-28T14:36:04.886Z,99283.31
2022-09-28T14:38:33.233Z,99285.44
2022-09-28T14:41:12.588Z,99283.69
2022-09-28T14:43:35.684Z,99272.59
2022-09-28T14:45:42.364Z,99284.03
2022-09-28T14:48:15.674Z,99285.78
2022-09-28T14:50:24.097Z,99281.63
2022-09-28T14:52:43.905Z,99285.03
2022-09-28T14:54:55.286Z,99301.59
2022-09-28T14:57:16.592Z,99280.66
2022-09-28T14:59:24.773Z,99289.34
2022-09-28T15:01:30.191Z,99307.84
2022-09-28T15:03:35.640Z,99243.56
2022-09-28T15:05:44.015Z,99307.13
2022-09-28T15:07:50.685Z,99311.63
2022-09-28T15:09:55.970Z,99315.09
2022-09-28T15:12:04.074Z,99316.03
2022-09-28T15:14:10.551Z,99315.97
2022-09-28T15:16:18.099Z,99315.06
2022-09-28T15:18:55.802Z,99321.16
2022-09-28T15:20:59.908Z,99319.41
2022-09-28T15:23:03.296Z,99319.94
2022-09-28T15:25:15.299Z,99318.16
2022-09-28T15:27:19.159Z,99311.28
2022-09-28T15:29:23.904Z,99313.84
2022-09-28T15:31:35.745Z,99317.59
2022-09-28T15:33:59.747Z,99316.69
2022-09-28T15:36:08.730Z,99314.06
2022-09-28T15:38:17.057Z,99323.81
2022-09-28T15:40:27.113Z,99306.31
2022-09-28T15:42:37.228Z,99326.34
2022-09-28T15:44:44.510Z,99316.78
2022-09-28T15:47:06.800Z,99317.59
2022-09-28T15:49:25.603Z,99316.78
2022-09-28T15:51:33.095Z,99311.50
2022-09-28T15:53:36.843Z,99320.31
2022-09-28T15:55:45.497Z,99311.56
2022-09-28T15:57:49.868Z,99315.94
2022-09-28T15:59:57.019Z,99318.63
2022-09-28T16:02:12.806Z,99322.06
2022-09-28T16:04:39.328Z,99326.47
2022-09-28T16:06:42.743Z,99324.72
2022-09-28T16:08:48.826Z,99330.84
2022-09-28T16:11:00.434Z,99335.22
2022-09-28T16:13:16.035Z,99342.19
2022-09-28T16:15:22.261Z,99350.06
2022-09-28T16:17:32.347Z,99346.53
2022-09-28T16:19:39.282Z,99358.75
2022-09-28T16:21:47.779Z,99374.47
2022-09-28T16:23:55.622Z,99366.66
2022-09-28T16:26:01.979Z,99363.16
2022-09-28T16:28:06.689Z,99366.66
2022-09-28T16:30:21.676Z,99325.72
2022-09-28T16:32:38.243Z,99372.75
2022-09-28T16:34:44.176Z,99374.50
2022-09-28T16:36:49.198Z,99374.50
2022-09-28T16:38:54.796Z,99377.13
2022-09-28T16:41:01.985Z,99379.72
2022-09-28T16:43:10.322Z,99389.31
2022-09-28T16:45:20.326Z,99391.06
2022-09-28T16:47:23.904Z,99388.44
2022-09-28T16:49:29.710Z,99390.19
2022-09-28T16:51:33.626Z,99388.44
2022-09-28T16:53:55.883Z,99395.41
2022-09-28T16:56:00.771Z,99394.53
2022-09-28T16:58:04.908Z,99400.66
2022-09-28T17:00:15.348Z,99398.03
2022-09-28T17:02:45.346Z,99393.66
2022-09-28T17:04:47.690Z,99406.72
2022-09-28T17:06:53.505Z,99405.88
2022-09-28T17:08:59.104Z,99413.69
2022-09-28T17:11:15.948Z,99411.09
2022-09-28T17:13:33.213Z,99411.09
2022-09-28T17:15:36.605Z,99415.44
2022-09-28T17:17:41.104Z,99411.97
2022-09-28T17:19:45.842Z,99408.47
2022-09-28T17:21:49.586Z,99402.38
2022-09-28T17:23:52.868Z,99405.84
2022-09-28T17:25:56.689Z,99406.72
2022-09-28T17:28:00.633Z,99410.22
2022-09-28T17:30:06.713Z,99416.28
2022-09-28T17:32:14.891Z,99409.31
2022-09-28T17:34:19.493Z,99413.69
2022-09-28T17:36:25.890Z,99423.25
2022-09-28T17:38:29.439Z,99412.84
2022-09-28T17:40:32.859Z,99416.31
2022-09-28T17:42:36.238Z,99414.56
2022-09-28T17:44:39.610Z,99418.06
2022-09-28T17:46:47.425Z,99412.81
2022-09-28T17:48:51.046Z,99411.06
2022-09-28T17:50:54.360Z,99421.44
2022-09-28T17:53:02.730Z,99427.50
2022-09-28T17:55:09.200Z,99410.91
2022-09-28T17:57:12.698Z,99426.47
2022-09-28T17:59:18.829Z,99429.97
2022-09-28T18:01:22.205Z,99420.31
2022-09-28T18:03:27.577Z,99425.47
2022-09-28T18:05:31.577Z,99423.69
2022-09-28T18:07:35.179Z,99429.78
2022-09-28T18:09:41.832Z,99427.16
2022-09-28T18:11:46.399Z,99430.63
2022-09-28T18:13:49.765Z,99431.50
2022-09-28T18:15:53.667Z,99430.63
2022-09-28T18:17:57.093Z,99432.31
2022-09-28T18:20:03.741Z,99434.03
2022-09-28T18:22:07.167Z,99437.44
2022-09-28T18:24:10.462Z,99435.69
2022-09-28T18:26:16.705Z,99430.50
2022-09-28T18:28:21.532Z,99438.31
2022-09-28T18:30:25.051Z,99436.53
2022-09-28T18:32:28.555Z,99444.31
2022-09-28T18:34:32.002Z,99439.88
2022-09-28T18:36:36.030Z,99456.38
2022-09-28T18:38:39.883Z,99444.16
2022-09-28T18:40:43.261Z,99445.88
2022-09-28T18:42:49.998Z,99444.09
2022-09-28T18:44:53.310Z,99446.72
2022-09-28T18:46:56.670Z,99447.56
2022-09-28T18:49:00.075Z,99444.97
2022-09-28T18:51:03.505Z,99451.94
2022-09-28T18:53:12.902Z,99452.84
2022-09-28T18:55:16.402Z,99451.06
2022-09-28T18:57:19.775Z,99452.69
2022-09-28T18:59:24.710Z,99453.59
2022-09-28T19:01:30.732Z,99459.78
2022-09-28T19:03:34.798Z,99460.69
2022-09-28T19:05:42.581Z,99465.16
2022-09-28T19:07:45.893Z,99461.66
2022-09-28T19:09:49.543Z,99466.91
2022-09-28T19:11:55.549Z,99460.78
2022-09-28T19:13:58.869Z,99465.16
2022-09-28T19:16:08.816Z,99450.38
2022-09-28T19:18:12.301Z,99467.16
2022-09-28T19:20:15.870Z,99472.81
2022-09-28T19:22:19.277Z,99463.34
2022-09-28T19:24:22.920Z,99459.00
2022-09-28T19:26:28.062Z,99459.88
2022-09-28T19:28:31.746Z,99459.00
2022-09-28T19:30:35.502Z,99456.41
2022-09-28T19:32:41.627Z,99466.81
2022-09-28T19:34:45.109Z,99473.72
2022-09-28T19:36:48.458Z,99470.19
2022-09-28T19:38:53.208Z,99419.44
2022-09-28T19:40:57.170Z,99479.59
2022-09-28T19:43:00.613Z,99479.59
2022-09-28T19:45:05.159Z,99480.44
2022-09-28T19:47:11.548Z,99479.56
2022-09-28T19:49:19.561Z,99481.28
2022-09-28T19:51:24.778Z,99480.38
2022-09-28T19:53:29.716Z,99481.19
2022-09-28T19:55:36.190Z,99466.38
2022-09-28T19:57:39.608Z,99482.06
2022-09-28T19:59:42.973Z,99491.59
2022-09-28T20:01:46.515Z,99491.53
2022-09-28T20:03:49.975Z,99498.38
2022-09-28T20:05:59.571Z,99500.81
2022-09-28T20:10:07.271Z,99500.72
2022-09-28T20:12:11.140Z,99497.25
2022-09-28T20:14:16.135Z,99503.28
2022-09-28T20:16:24.354Z,99502.41
2022-09-28T20:18:27.675Z,99501.50
2022-09-28T20:20:31.048Z,99501.59
2022-09-28T20:22:36.987Z,99503.34
2022-09-28T20:24:40.317Z,99497.28
2022-09-28T20:26:44.360Z,99504.25
2022-09-28T20:28:47.837Z,99491.19
2022-09-28T20:30:51.271Z,99499.88
2022-09-28T20:32:54.627Z,99502.47
2022-09-28T20:34:57.924Z,99499.78
2022-09-28T20:37:01.355Z,99510.22
2022-09-28T20:39:06.046Z,99508.47
2022-09-28T20:41:10.355Z,99505.88
2022-09-28T20:43:15.127Z,99505.94
2022-09-28T20:45:19.590Z,99502.44
2022-09-28T20:47:23.026Z,99503.31
2022-09-28T20:49:27.946Z,99502.41
2022-09-28T20:51:31.480Z,99495.50
2022-09-28T20:53:34.795Z,99494.59
2022-09-28T20:55:39.430Z,99498.91
2022-09-28T20:57:42.752Z,99500.69
2022-09-28T20:59:48.772Z,99511.16
2022-09-28T21:01:55.576Z,99507.66
2022-09-28T21:04:00.911Z,99499.88
2022-09-28T21:06:11.520Z,99499.00
2022-09-28T21:08:15.738Z,99499.00
2022-09-28T21:10:19.056Z,99500.66
2022-09-28T21:12:26.092Z,99503.28
2022-09-28T21:14:29.459Z,99501.53
2022-09-28T21:16:34.642Z,99502.44
2022-09-28T21:18:38.125Z,99502.44
2022-09-28T21:20:45.553Z,99503.28
2022-09-28T21:22:48.847Z,99501.50
2022-09-28T21:24:52.193Z,99505.06
2022-09-28T21:26:55.986Z,99504.22
2022-09-28T21:29:02.221Z,99504.19
2022-09-28T21:31:08.590Z,99506.00
2022-09-28T21:33:12.322Z,99506.84
2022-09-28T21:35:15.971Z,99502.47
2022-09-28T21:37:19.242Z,99507.69
2022-09-28T21:39:22.559Z,99507.69
2022-09-28T21:41:26.640Z,99496.38
2022-09-28T21:43:31.503Z,99495.47
2022-09-28T21:45:36.238Z,99509.41
2022-09-28T21:47:43.484Z,99505.97
2022-09-28T21:49:46.786Z,99507.69
2022-09-28T21:51:50.318Z,99506.88
2022-09-28T21:53:54.096Z,99506.88
2022-09-28T21:55:59.433Z,99510.28
2022-09-28T21:58:02.846Z,99513.75
2022-09-28T22:00:07.153Z,99508.56
2022-09-28T22:02:12.208Z,99515.41
2022-09-28T22:04:15.745Z,99504.81
2022-09-28T22:06:21.551Z,99507.25
2022-09-28T22:08:25.714Z,99511.47
2022-09-28T22:10:29.075Z,99511.47
2022-09-28T22:12:35.629Z,99507.13
2022-09-28T22:14:38.908Z,99508.03
2022-09-28T22:16:42.248Z,99502.75
2022-09-28T22:18:46.973Z,99506.09
2022-09-28T22:20:50.470Z,99501.66
2022-09-28T22:22:53.858Z,99505.88
2022-09-28T22:24:57.122Z,99501.53
2022-09-28T22:27:01.133Z,99511.91
2022-09-28T22:29:06.794Z,99508.41
2022-09-28T22:31:10.157Z,99511.00
2022-09-28T22:33:13.439Z,99514.34
2022-09-28T22:35:18.182Z,99516.00
2022-09-28T22:37:21.470Z,99514.19
2022-09-28T22:39:24.821Z,99513.31
2022-09-28T22:41:28.425Z,99507.47
2022-09-28T22:43:32.081Z,99515.50
2022-09-28T22:45:35.395Z,99511.38
2022-09-28T22:47:38.993Z,99518.41
2022-09-28T22:49:42.306Z,99508.91
2022-09-28T22:51:46.959Z,99515.06
2022-09-28T22:53:50.376Z,99511.69
2022-09-28T22:55:53.777Z,99521.28
2022-09-28T22:57:57.052Z,99523.03
2022-09-28T23:00:00.371Z,99536.91
2022-09-28T23:02:03.866Z,99522.88
2022-09-28T23:04:07.421Z,99528.03
2022-09-28T23:06:11.952Z,99492.31
2022-09-28T23:08:16.628Z,99518.66
2022-09-28T23:10:20.101Z,99526.50
2022-09-28T23:12:23.522Z,99525.59
2022-09-28T23:14:26.836Z,99522.13
2022-09-28T23:16:30.351Z,99521.25
2022-09-28T23:18:35.826Z,99517.81
2022-09-28T23:20:39.679Z,99517.84
2022-09-28T23:22:46.851Z,99517.00
2022-09-28T23:24:51.556Z,99514.31
2022-09-28T23:26:54.929Z,99519.56
2022-09-28T23:28:58.925Z,99517.84
2022-09-28T23:31:09.330Z,99515.19
2022-09-28T23:33:13.737Z,99510.78
2022-09-28T23:35:17.229Z,99519.44
2022-09-28T23:37:20.660Z,99518.59
2022-09-28T23:39:24.014Z,99515.09
2022-09-28T23:41:28.669Z,99513.19
2022-09-28T23:43:32.050Z,99522.66
2022-09-28T23:45:35.406Z,99513.91
2022-09-28T23:47:38.997Z,99520.13
2022-09-28T23:49:42.248Z,99520.28
2022-09-28T23:51:45.630Z,99516.03
2022-09-28T23:53:48.987Z,99519.50
2022-09-28T23:55:52.278Z,99518.63
2022-09-28T23:57:58.127Z,99518.69
